Time;durP1;ratioP1;P1;durP2;ratioP2;P2;SDS_P1;SDS_P2;PMS_P1;PMS_P2;Temp;Humidity;BMP_temperature;BMP_pressure;BME280_temperature;BME280_humidity;BME280_pressure;Samples;Min_cycle;Max_cycle;Signal;HPM_P1;HPM_P2
2023/10/30 00:00:45;;;;;;;8.82;4.53;;;;;;;17.24;52.84;100068.00;5133570;27;20028;-40
2023/10/30 00:03:11;;;;;;;12.32;5.60;;;;;;;16.79;57.25;100065.97;5132927;27;20424;-39
2023/10/30 00:05:36;;;;;;;12.18;5.13;;;;;;;16.94;56.57;100058.25;5129916;27;20030;-40
2023/10/30 00:08:02;;;;;;;8.70;4.28;;;;;;;16.97;55.35;100060.50;5112217;28;20028;-39
2023/10/30 00:10:28;;;;;;;5.82;4.07;;;;;;;17.02;54.61;100061.63;5112421;28;20024;-40
2023/10/30 00:12:54;;;;;;;9.63;4.22;;;;;;;16.98;53.77;100066.66;5112510;28;20441;-39
2023/10/30 00:15:19;;;;;;;12.32;4.25;;;;;;;17.13;53.27;100066.97;5112067;28;20467;-39
2023/10/30 00:17:45;;;;;;;12.63;4.28;;;;;;;16.94;53.97;100071.69;5112202;28;20045;-38
2023/10/30 00:20:10;;;;;;;17.77;5.28;;;;;;;16.83;55.21;100071.72;5114455;27;20051;-40
2023/10/30 00:22:35;;;;;;;9.70;4.57;;;;;;;16.98;54.09;100067.50;5111953;28;20337;-39
2023/10/30 00:25:02;;;;;;;10.75;4.53;;;;;;;17.05;53.52;100059.28;5112235;28;20220;-38
2023/10/30 00:27:28;;;;;;;9.82;4.78;;;;;;;17.06;53.84;100070.84;5112114;28;20023;-40
2023/10/30 00:29:53;;;;;;;9.88;4.50;;;;;;;17.09;54.30;100068.50;5112086;28;20611;-40
2023/10/30 00:32:19;;;;;;;7.38;4.50;;;;;;;17.09;53.73;100062.31;5111774;28;20055;-40
2023/10/30 00:34:44;;;;;;;10.68;4.72;;;;;;;16.86;54.42;100068.59;5116269;27;20023;-40
2023/10/30 00:37:11;;;;;;;7.38;4.40;;;;;;;16.83;54.04;100067.19;5132519;27;20019;-40
2023/10/30 00:39:38;;;;;;;10.20;4.45;;;;;;;16.59;55.17;100064.50;5133125;27;20030;-41
2023/10/30 00:42:03;;;;;;;8.90;4.45;;;;;;;16.54;55.64;100063.56;5132919;27;20020;-40
2023/10/30 00:44:29;;;;;;;13.15;4.28;;;;;;;16.61;55.12;100069.63;5133426;27;20488;-40
2023/10/30 00:46:54;;;;;;;10.38;4.30;;;;;;;16.67;54.99;100063.31;5133232;27;20030;-41
2023/10/30 00:49:20;;;;;;;8.45;4.38;;;;;;;16.78;55.21;100067.84;5133256;27;20058;-41
2023/10/30 00:51:46;;;;;;;8.57;4.07;;;;;;;16.75;54.57;100070.19;5133433;27;20030;-40
2023/10/30 00:54:11;;;;;;;9.07;4.10;;;;;;;16.67;54.47;100079.44;5132864;27;20015;-38
2023/10/30 00:56:37;;;;;;;11.07;4.55;;;;;;;16.70;54.95;100070.09;5132715;27;20114;-40
2023/10/30 00:59:02;;;;;;;10.27;4.28;;;;;;;16.84;54.34;100076.88;5132653;27;20023;-40
2023/10/30 01:01:27;;;;;;;9.43;4.20;;;;;;;16.56;53.65;100056.09;5133058;27;20049;-39
2023/10/30 01:03:53;;;;;;;10.02;4.10;;;;;;;16.54;54.21;100064.38;5132872;27;20018;-40
2023/10/30 01:06:18;;;;;;;8.80;4.35;;;;;;;16.76;54.79;100074.53;5131974;27;20474;-40
2023/10/30 01:08:44;;;;;;;7.57;4.13;;;;;;;16.73;54.76;100075.81;5112049;28;20460;-40
2023/10/30 01:11:09;;;;;;;13.75;4.18;;;;;;;16.69;54.29;100068.47;5111962;28;20027;-40
2023/10/30 01:13:36;;;;;;;10.43;4.32;;;;;;;16.51;54.62;100067.53;5112251;28;20090;-41
2023/10/30 01:16:02;;;;;;;9.77;4.32;;;;;;;16.71;54.44;100075.22;5111912;28;20051;-40
2023/10/30 01:18:27;;;;;;;8.02;3.80;;;;;;;16.74;54.82;100071.25;5112197;28;20027;-40
2023/10/30 01:20:53;;;;;;;9.45;4.28;;;;;;;16.62;54.62;100076.66;5112125;28;20428;-40
2023/10/30 01:23:18;;;;;;;9.35;4.15;;;;;;;16.66;54.09;100072.44;5111748;28;20019;-41
2023/10/30 01:25:46;;;;;;;7.63;3.83;;;;;;;16.72;54.59;100074.19;5111668;27;20018;-40
2023/10/30 01:28:11;;;;;;;12.02;4.20;;;;;;;16.62;53.58;100068.59;5111681;28;20020;-40
2023/10/30 01:30:36;;;;;;;8.90;4.13;;;;;;;16.38;54.94;100073.97;5111434;28;20048;-42
2023/10/30 01:33:02;;;;;;;8.75;4.30;;;;;;;16.41;55.33;100070.81;5112008;28;20035;-41
2023/10/30 01:35:28;;;;;;;9.85;4.28;;;;;;;16.51;55.58;100072.13;5111509;28;20453;-40
2023/10/30 01:37:53;;;;;;;12.85;4.20;;;;;;;16.49;54.45;100068.84;5111666;28;20015;-41
2023/10/30 01:40:18;;;;;;;12.60;4.50;;;;;;;16.56;54.92;100074.88;5111344;28;20022;-41
2023/10/30 01:42:44;;;;;;;7.78;3.85;;;;;;;16.47;54.83;100073.59;5111293;28;20016;-41
2023/10/30 01:45:10;;;;;;;6.90;4.10;;;;;;;16.30;55.23;100074.31;5111622;28;20533;-41
2023/10/30 01:47:36;;;;;;;11.07;4.47;;;;;;;16.42;54.90;100072.44;5111131;28;20103;-41
2023/10/30 01:50:02;;;;;;;8.13;3.95;;;;;;;16.50;54.89;100075.84;5111459;28;20020;-41
2023/10/30 01:52:29;;;;;;;7.30;4.15;;;;;;;16.41;54.61;100076.19;5111194;28;20538;-40
2023/10/30 01:54:56;;;;;;;6.70;3.42;;;;;;;16.13;55.75;100068.81;5111368;28;20027;-41
2023/10/30 01:57:22;;;;;;;8.35;3.85;;;;;;;16.15;54.81;100074.78;5121145;28;20087;-40
2023/10/30 01:59:51;;;;;;;7.40;3.88;;;;;;;16.04;54.75;100070.22;5111288;28;20055;-41
2023/10/30 02:02:19;;;;;;;7.35;3.42;;;;;;;16.18;54.94;100084.22;5111813;28;20027;-40
2023/10/30 02:04:44;;;;;;;5.38;3.28;;;;;;;16.17;55.02;100082.59;5111300;28;20544;-41
2023/10/30 02:07:10;;;;;;;8.60;3.25;;;;;;;16.25;54.27;100079.56;5111298;28;20032;-41
2023/10/30 02:09:36;;;;;;;9.38;3.47;;;;;;;16.27;54.18;100082.84;5111017;28;20023;-41
2023/10/30 02:12:01;;;;;;;7.85;3.83;;;;;;;16.27;54.37;100085.53;5111171;28;20137;-41
2023/10/30 02:14:27;;;;;;;7.68;3.33;;;;;;;16.26;54.80;100075.84;5111368;28;20016;-41
2023/10/30 02:16:52;;;;;;;6.55;3.33;;;;;;;16.17;54.87;100086.09;5111183;28;20360;-40
2023/10/30 02:19:27;;;;;;;9.75;3.47;;;;;;;16.17;55.13;100082.59;5110771;28;20031;-42
2023/10/30 02:21:55;;;;;;;5.50;3.80;;;;;;;16.24;54.98;100075.25;5112473;28;20099;-44
2023/10/30 02:24:21;;;;;;;6.65;3.20;;;;;;;16.37;54.26;100083.09;5106432;28;20042;-41
2023/10/30 02:26:47;;;;;;;7.68;3.55;;;;;;;16.39;54.56;100080.16;5110566;28;20518;-41
2023/10/30 02:29:13;;;;;;;5.72;3.28;;;;;;;16.39;54.84;100086.34;5090742;28;20024;-40
2023/10/30 02:31:38;;;;;;;6.55;3.30;;;;;;;16.47;54.66;100077.13;5090203;28;20453;-41
2023/10/30 02:34:04;;;;;;;6.90;3.20;;;;;;;16.52;54.12;100090.66;5090358;28;20625;-42
2023/10/30 02:36:29;;;;;;;7.05;3.13;;;;;;;16.49;54.25;100082.28;5100294;28;20023;-40
2023/10/30 02:38:55;;;;;;;8.20;3.05;;;;;;;16.53;53.55;100092.31;5110903;28;20028;-41
2023/10/30 02:41:21;;;;;;;8.98;3.22;;;;;;;16.41;54.08;100094.16;5110546;28;20027;-41
2023/10/30 02:43:46;;;;;;;5.57;2.92;;;;;;;16.33;53.74;100095.31;5111206;28;20471;-40
2023/10/30 02:46:12;;;;;;;9.75;3.10;;;;;;;16.16;55.06;100089.84;5111147;28;20023;-41
2023/10/30 02:48:37;;;;;;;6.85;3.25;;;;;;;15.82;55.63;100094.91;5114374;28;20035;-41
2023/10/30 02:51:03;;;;;;;6.40;3.10;;;;;;;15.63;55.58;100083.41;5122532;27;20027;-40
2023/10/30 02:53:29;;;;;;;6.18;2.88;;;;;;;15.59;55.43;100094.78;5119058;27;20549;-41
2023/10/30 02:55:54;;;;;;;5.75;2.90;;;;;;;15.54;55.37;100092.00;5120206;27;20027;-41
2023/10/30 02:58:20;;;;;;;4.35;2.58;;;;;;;15.51;55.75;100095.13;5119177;27;20026;-41
2023/10/30 03:00:45;;;;;;;9.27;3.10;;;;;;;15.66;55.53;100105.44;5114273;28;20106;-40
2023/10/30 03:03:10;;;;;;;6.63;3.17;;;;;;;15.36;56.07;100096.31;5114212;28;20011;-40
2023/10/30 03:05:36;;;;;;;5.75;2.88;;;;;;;15.57;55.38;100089.69;5123726;27;20023;-41
2023/10/30 03:08:02;;;;;;;6.97;3.20;;;;;;;15.58;55.91;100098.53;5122155;27;20027;-40
2023/10/30 03:10:28;;;;;;;6.32;3.03;;;;;;;15.51;56.17;100090.56;5114374;28;20027;-40
2023/10/30 03:12:53;;;;;;;6.93;3.03;;;;;;;15.44;56.17;100095.22;5114023;28;20015;-41
2023/10/30 03:15:19;;;;;;;10.27;4.68;;;;;;;15.56;55.70;100093.38;5114147;28;20043;-41
2023/10/30 03:17:44;;;;;;;7.15;3.22;;;;;;;15.69;56.20;100097.75;5114061;28;20023;-40
2023/10/30 03:20:10;;;;;;;5.95;3.00;;;;;;;15.12;58.07;100094.59;5114122;28;20089;-41
2023/10/30 03:22:35;;;;;;;7.60;3.03;;;;;;;15.07;57.27;100091.75;5114133;28;20018;-40
2023/10/30 03:25:01;;;;;;;7.32;3.13;;;;;;;15.43;56.65;100091.69;5113678;28;20054;-40
2023/10/30 03:27:27;;;;;;;6.97;3.00;;;;;;;15.58;56.34;100103.91;5113742;27;20015;-41
2023/10/30 03:29:52;;;;;;;7.07;2.80;;;;;;;15.66;56.07;100094.72;5113622;28;20035;-41
2023/10/30 03:32:18;;;;;;;5.70;2.63;;;;;;;15.90;55.33;100095.63;5123241;27;20036;-41
2023/10/30 03:34:43;;;;;;;8.65;3.10;;;;;;;15.99;55.49;100097.75;5134008;27;20019;-41
2023/10/30 03:37:08;;;;;;;6.25;2.60;;;;;;;15.50;56.63;100093.47;5116065;27;20482;-41
2023/10/30 03:39:34;;;;;;;6.03;2.67;;;;;;;15.41;55.78;100099.16;5113722;28;20111;-41
2023/10/30 03:42:00;;;;;;;8.55;2.95;;;;;;;15.09;56.96;100092.34;5113620;28;20026;-41
2023/10/30 03:44:26;;;;;;;6.00;2.88;;;;;;;15.29;56.12;100095.63;5113300;28;20020;-41
2023/10/30 03:46:52;;;;;;;7.82;3.20;;;;;;;15.46;55.66;100101.19;5113490;27;20016;-41
2023/10/30 03:49:17;;;;;;;8.85;3.20;;;;;;;15.64;55.35;100108.34;5113495;28;20019;-40
2023/10/30 03:51:43;;;;;;;9.88;3.38;;;;;;;15.77;55.08;100107.38;5113269;28;20098;-40
2023/10/30 03:54:08;;;;;;;6.00;2.85;;;;;;;15.74;54.51;100100.59;5113629;28;20023;-41
2023/10/30 03:56:34;;;;;;;6.05;3.30;;;;;;;15.92;54.69;100105.09;5113507;28;20047;-40
2023/10/30 03:59:00;;;;;;;6.25;3.00;;;;;;;15.78;54.76;100098.25;5113328;28;20024;-41
2023/10/30 04:01:25;;;;;;;4.50;2.75;;;;;;;15.45;55.32;100103.03;5115906;27;20095;-40
2023/10/30 04:03:51;;;;;;;6.72;3.05;;;;;;;15.64;55.11;100113.72;5133937;27;20026;-41
2023/10/30 04:06:17;;;;;;;9.80;3.20;;;;;;;15.73;54.58;100115.06;5133856;27;20015;-41
2023/10/30 04:08:42;;;;;;;5.45;3.03;;;;;;;15.93;53.89;100106.69;5116181;27;20362;-40
2023/10/30 04:11:17;;;;;;;6.55;3.15;;;;;;;16.00;53.71;100118.16;5112922;28;20106;-41
2023/10/30 04:13:43;;;;;;;6.28;3.13;;;;;;;16.09;53.37;100115.13;5113129;27;20373;-41
2023/10/30 04:16:13;;;;;;;8.18;2.80;;;;;;;16.01;53.20;100103.72;5113179;28;20520;-41
2023/10/30 04:18:38;;;;;;;6.80;3.15;;;;;;;16.22;53.28;100104.19;5113093;28;20420;-40
2023/10/30 04:21:05;;;;;;;5.97;3.10;;;;;;;16.13;53.28;100102.91;5113024;28;20091;-41
2023/10/30 04:23:30;;;;;;;4.70;2.90;;;;;;;16.29;53.03;100112.97;5113177;28;20076;-40
2023/10/30 04:25:56;;;;;;;10.13;3.58;;;;;;;16.27;53.03;100098.13;5113026;28;20023;-40
2023/10/30 04:28:21;;;;;;;5.88;3.10;;;;;;;16.22;52.96;100106.88;5113031;28;20023;-41
2023/10/30 04:30:47;;;;;;;6.90;3.05;;;;;;;16.30;52.41;100106.56;5112683;28;20493;-41
2023/10/30 04:33:12;;;;;;;7.80;3.47;;;;;;;16.19;53.19;100107.34;5112618;28;20100;-40
2023/10/30 04:35:38;;;;;;;7.57;3.20;;;;;;;16.17;52.73;100114.81;5112683;28;20030;-41
2023/10/30 04:38:03;;;;;;;7.00;3.45;;;;;;;16.15;54.17;100106.19;5112442;28;20035;-40
2023/10/30 04:40:29;;;;;;;7.53;3.60;;;;;;;16.25;53.22;100108.28;5112607;28;20019;-41
2023/10/30 04:42:54;;;;;;;5.07;3.22;;;;;;;16.35;53.11;100116.59;5112317;28;20121;-41
2023/10/30 04:45:20;;;;;;;6.50;3.60;;;;;;;16.37;53.59;100117.16;5112126;28;20094;-41
2023/10/30 04:47:46;;;;;;;10.00;3.42;;;;;;;16.25;53.77;100103.72;5112541;28;20039;-41
2023/10/30 04:50:11;;;;;;;7.82;3.70;;;;;;;16.39;53.77;100115.06;5111981;28;20475;-41
2023/10/30 04:52:37;;;;;;;7.20;3.30;;;;;;;16.22;52.56;100105.03;5112221;28;20074;-41
2023/10/30 04:55:02;;;;;;;11.48;3.75;;;;;;;16.26;52.89;100118.81;5112372;28;20028;-43
2023/10/30 04:57:28;;;;;;;9.48;3.55;;;;;;;16.14;53.21;100112.59;5111903;28;20391;-41
2023/10/30 04:59:53;;;;;;;7.22;3.35;;;;;;;16.18;52.89;100119.13;5112242;28;20100;-41
2023/10/30 05:02:19;;;;;;;9.30;4.07;;;;;;;16.09;52.96;100125.88;5112445;28;20506;-41
2023/10/30 05:04:44;;;;;;;8.85;3.83;;;;;;;16.21;53.69;100118.69;5112446;28;20066;-41
2023/10/30 05:07:10;;;;;;;10.05;3.67;;;;;;;16.18;53.35;100122.66;5112532;28;20019;-41
2023/10/30 05:09:36;;;;;;;8.38;3.70;;;;;;;16.36;60.73;100123.59;5112459;28;20103;-42
2023/10/30 05:12:01;;;;;;;12.48;4.50;;;;;;;16.53;55.75;100126.41;5112436;28;20035;-40
2023/10/30 05:14:27;;;;;;;15.73;4.63;;;;;;;16.57;53.00;100119.53;5112436;28;20023;-42
2023/10/30 05:16:52;;;;;;;9.95;3.90;;;;;;;16.75;52.44;100127.47;5101373;28;20042;-41
2023/10/30 05:19:18;;;;;;;14.23;4.00;;;;;;;16.84;52.64;100124.44;5091822;28;20024;-41
2023/10/30 05:21:43;;;;;;;18.45;3.92;;;;;;;16.95;53.27;100119.06;5099446;28;20024;-41
2023/10/30 05:24:09;;;;;;;14.13;3.53;;;;;;;16.98;52.16;100133.88;5115300;27;20019;-40
2023/10/30 05:26:34;;;;;;;14.18;3.75;;;;;;;17.24;51.66;100137.13;5112330;28;20023;-43
2023/10/30 05:29:00;;;;;;;10.77;4.22;;;;;;;17.50;51.04;100138.44;5112277;28;20023;-40
2023/10/30 05:31:25;;;;;;;12.52;4.35;;;;;;;17.70;50.26;100135.31;5121359;27;20047;-41
2023/10/30 05:33:51;;;;;;;13.57;4.20;;;;;;;17.88;49.47;100143.22;5132073;27;20431;-42
2023/10/30 05:36:16;;;;;;;7.97;4.00;;;;;;;18.09;49.10;100138.19;5132245;27;20019;-42
2023/10/30 05:38:41;;;;;;;13.55;4.75;;;;;;;18.41;48.64;100130.38;5131947;27;20054;-41
2023/10/30 05:41:07;;;;;;;12.15;4.53;;;;;;;18.59;47.98;100137.38;5131439;27;20023;-43
2023/10/30 05:43:32;;;;;;;11.13;6.15;;;;;;;18.73;47.58;100144.06;5131113;27;20716;-43
2023/10/30 05:45:57;;;;;;;7.53;4.35;;;;;;;19.16;46.29;100133.59;5130894;27;20019;-41
2023/10/30 05:48:23;;;;;;;12.38;3.85;;;;;;;19.51;46.06;100148.56;5131451;27;20022;-39
2023/10/30 05:50:48;;;;;;;8.40;4.15;;;;;;;19.72;45.52;100149.63;5131553;27;20035;-42
2023/10/30 05:53:14;;;;;;;9.07;3.90;;;;;;;20.07;44.48;100146.47;5131686;27;20022;-41
2023/10/30 05:55:39;;;;;;;7.38;4.20;;;;;;;20.55;43.56;100153.88;5132531;28;20417;-41
2023/10/30 05:58:05;;;;;;;8.57;3.97;;;;;;;20.80;43.03;100154.06;5124899;27;20495;-39
2023/10/30 06:00:30;;;;;;;11.10;4.10;;;;;;;21.01;42.32;100156.91;5106271;28;20114;-41
2023/10/30 06:02:55;;;;;;;9.77;4.13;;;;;;;21.28;41.60;100162.16;5106659;28;20026;-39
2023/10/30 06:05:21;;;;;;;8.88;3.80;;;;;;;21.77;41.02;100161.81;5111683;28;20032;-39
2023/10/30 06:07:47;;;;;;;9.88;4.95;;;;;;;21.93;40.26;100153.72;5111158;28;20498;-41
2023/10/30 06:10:13;;;;;;;12.80;4.40;;;;;;;22.34;39.44;100159.19;5111260;28;20107;-44
2023/10/30 06:12:39;;;;;;;9.75;3.90;;;;;;;22.62;38.70;100149.69;5111319;28;20625;-42
2023/10/30 06:15:07;;;;;;;10.63;4.28;;;;;;;23.02;38.17;100166.97;5111173;28;20032;-40
2023/10/30 06:17:33;;;;;;;6.88;3.50;;;;;;;23.38;37.39;100158.69;5111103;28;20191;-40
2023/10/30 06:19:58;;;;;;;8.88;3.92;;;;;;;23.47;37.33;100167.06;5111526;28;20031;-40
2023/10/30 06:22:24;;;;;;;9.00;3.70;;;;;;;23.73;36.91;100176.72;5110643;28;20034;-40
2023/10/30 06:24:49;;;;;;;11.10;3.35;;;;;;;23.77;36.76;100174.25;5110406;28;20019;-40
2023/10/30 06:27:14;;;;;;;7.35;3.47;;;;;;;23.95;36.67;100179.06;5110871;28;20094;-39
2023/10/30 06:29:40;;;;;;;7.13;3.70;;;;;;;24.28;35.59;100173.94;5110705;28;20077;-41
2023/10/30 06:32:07;;;;;;;12.18;3.50;;;;;;;24.55;35.29;100178.88;5111497;28;20075;-40
2023/10/30 06:34:38;;;;;;;12.38;3.60;;;;;;;24.28;35.38;100170.41;5114753;28;20471;-40
2023/10/30 06:37:03;;;;;;;10.13;4.22;;;;;;;24.26;35.46;100167.97;5115397;28;20081;-41
2023/10/30 06:39:29;;;;;;;8.95;3.60;;;;;;;24.42;35.08;100174.06;5115278;28;20024;-40
2023/10/30 06:41:56;;;;;;;10.13;3.60;;;;;;;24.85;34.36;100176.16;5115103;28;20016;-41
2023/10/30 06:44:24;;;;;;;6.03;3.58;;;;;;;24.81;33.96;100178.66;5115040;28;20056;-41
2023/10/30 06:46:50;;;;;;;8.47;3.80;;;;;;;24.83;33.91;100173.72;5114929;28;20031;-42
2023/10/30 06:49:18;;;;;;;9.40;3.50;;;;;;;25.30;33.29;100174.88;5114892;28;20019;-40
2023/10/30 06:51:44;;;;;;;8.43;3.77;;;;;;;25.28;33.70;100168.88;5114784;27;20069;-40
2023/10/30 06:54:10;;;;;;;8.57;3.50;;;;;;;25.50;33.32;100175.69;5114369;28;20281;-41
2023/10/30 06:56:36;;;;;;;7.90;3.58;;;;;;;25.80;32.97;100168.19;5114529;28;20023;-40
2023/10/30 06:59:02;;;;;;;9.70;3.63;;;;;;;25.84;33.29;100169.25;5114362;28;20091;-44
2023/10/30 07:01:29;;;;;;;8.55;4.15;;;;;;;26.04;32.80;100174.38;5113875;28;20487;-40
2023/10/30 07:03:54;;;;;;;8.88;3.53;;;;;;;25.97;33.21;100170.41;5114015;28;20487;-40
2023/10/30 07:06:20;;;;;;;7.25;3.55;;;;;;;26.14;32.78;100174.25;5114170;28;20023;-40
2023/10/30 07:08:45;;;;;;;9.95;3.88;;;;;;;26.31;32.72;100170.97;5114369;28;20027;-39
2023/10/30 07:11:11;;;;;;;7.43;3.50;;;;;;;26.77;31.90;100176.75;5114303;27;20034;-40
2023/10/30 07:13:36;;;;;;;9.95;3.65;;;;;;;27.11;31.54;100171.72;5113699;28;20028;-40
2023/10/30 07:16:01;;;;;;;8.57;4.32;;;;;;;27.35;31.06;100172.66;5114687;27;20106;-39
2023/10/30 07:18:29;;;;;;;7.20;3.92;;;;;;;27.69;30.47;100177.66;5122607;27;20042;-41
2023/10/30 07:20:54;;;;;;;9.98;4.15;;;;;;;27.62;30.88;100174.53;5120420;27;20028;-40
2023/10/30 07:23:20;;;;;;;12.32;4.88;;;;;;;27.64;30.64;100178.56;5114403;27;20157;-39
2023/10/30 07:25:45;;;;;;;13.20;4.43;;;;;;;27.80;30.61;100178.25;5116785;27;20064;-44
2023/10/30 07:28:11;;;;;;;31.60;19.73;;;;;;;27.94;33.12;100176.28;5134414;27;20035;-39
2023/10/30 07:30:37;;;;;;;7.72;3.80;;;;;;;28.31;30.35;100177.06;5133989;27;20055;-40
2023/10/30 07:33:02;;;;;;;11.35;3.70;;;;;;;28.53;29.87;100172.69;5133084;27;20062;-40
2023/10/30 07:35:27;;;;;;;7.18;3.53;;;;;;;28.56;29.61;100172.06;5133900;27;20027;-42
2023/10/30 07:37:53;;;;;;;14.13;7.10;;;;;;;28.22;30.36;100171.50;5134039;27;20193;-43
2023/10/30 07:40:19;;;;;;;10.32;3.72;;;;;;;28.19;30.37;100172.13;5134397;27;20102;-41
2023/10/30 07:42:44;;;;;;;9.73;3.13;;;;;;;28.31;30.23;100171.59;5133394;27;20023;-41
2023/10/30 07:45:11;;;;;;;9.57;3.28;;;;;;;27.94;30.72;100162.63;5131832;27;20375;-43
2023/10/30 07:47:37;;;;;;;22.05;4.00;;;;;;;28.15;30.48;100162.13;5133124;27;20102;-41
2023/10/30 07:50:04;;;;;;;14.77;3.85;;;;;;;28.48;30.35;100148.97;5133293;27;20524;-42
2023/10/30 07:52:29;;;;;;;11.63;3.88;;;;;;;28.60;30.19;100159.38;5133169;27;20030;-39
2023/10/30 07:54:54;;;;;;;14.43;4.00;;;;;;;28.93;29.90;100157.09;5133187;27;20019;-40
2023/10/30 07:57:20;;;;;;;31.00;4.90;;;;;;;29.19;29.34;100157.22;5132860;27;20023;-39
2023/10/30 07:59:47;;;;;;;17.83;4.25;;;;;;;28.99;29.93;100160.50;5132895;27;20483;-39
2023/10/30 08:02:12;;;;;;;12.77;3.50;;;;;;;29.20;29.39;100147.84;5132800;27;20023;-41
2023/10/30 08:04:38;;;;;;;7.63;3.00;;;;;;;29.22;29.54;100145.59;5132515;27;20084;-43
2023/10/30 08:07:03;;;;;;;13.50;3.10;;;;;;;28.75;30.04;100148.03;5132778;27;20027;-40
2023/10/30 08:09:28;;;;;;;8.45;3.13;;;;;;;28.93;29.98;100145.34;5132522;27;20034;-41
2023/10/30 08:11:55;;;;;;;9.25;3.78;;;;;;;28.88;29.56;100150.94;5132630;27;20051;-41
2023/10/30 08:14:21;;;;;;;8.05;3.03;;;;;;;28.02;30.76;100155.59;5132482;27;20539;-43
2023/10/30 08:16:46;;;;;;;7.80;2.95;;;;;;;28.22;30.82;100146.91;5132915;27;20015;-44
2023/10/30 08:19:12;;;;;;;6.93;2.30;;;;;;;28.31;30.26;100149.69;5132755;27;20023;-40
2023/10/30 08:21:37;;;;;;;8.43;2.55;;;;;;;28.13;30.56;100145.22;5132829;27;20052;-40
2023/10/30 08:24:03;;;;;;;10.60;2.75;;;;;;;28.55;30.18;100140.34;5132666;27;20023;-45
2023/10/30 08:26:29;;;;;;;6.90;2.30;;;;;;;28.35;30.24;100141.66;5132482;27;20019;-43
2023/10/30 08:28:54;;;;;;;5.25;2.28;;;;;;;28.90;29.48;100137.75;5131942;27;20026;-41
2023/10/30 08:31:20;;;;;;;4.30;2.10;;;;;;;29.12;29.42;100134.13;5132393;27;20046;-39
2023/10/30 08:33:45;;;;;;;5.75;2.60;;;;;;;28.99;29.90;100133.09;5132400;27;20029;-41
2023/10/30 08:36:10;;;;;;;5.88;2.33;;;;;;;29.01;29.89;100133.59;5132341;27;20053;-42
2023/10/30 08:38:38;;;;;;;4.25;2.47;;;;;;;29.27;29.45;100135.63;5132088;27;20035;-39
2023/10/30 08:41:04;;;;;;;7.28;2.53;;;;;;;29.76;28.68;100133.63;5132054;27;20442;-41
2023/10/30 08:43:29;;;;;;;5.63;2.50;;;;;;;30.06;28.38;100131.00;5132092;27;20023;-41
2023/10/30 08:45:54;;;;;;;5.57;2.70;;;;;;;29.50;29.02;100126.16;5132196;27;20063;-42
2023/10/30 08:48:20;;;;;;;5.88;2.40;;;;;;;29.34;29.52;100130.47;5131458;27;20471;-40
2023/10/30 08:50:46;;;;;;;5.03;2.40;;;;;;;29.39;29.18;100122.91;5131677;27;20057;-41
2023/10/30 08:53:11;;;;;;;5.05;2.40;;;;;;;29.28;29.48;100126.28;5130550;27;20061;-41
2023/10/30 08:55:36;;;;;;;5.07;2.33;;;;;;;29.85;28.72;100119.88;5112282;27;20031;-41
2023/10/30 08:58:02;;;;;;;8.02;2.53;;;;;;;29.93;28.78;100127.28;5113477;27;20030;-42
2023/10/30 09:00:28;;;;;;;4.80;2.55;;;;;;;30.10;28.62;100123.72;5115614;27;20042;-43
2023/10/30 09:02:53;;;;;;;7.45;2.55;;;;;;;29.28;28.99;100127.06;5111978;28;20015;-45
2023/10/30 09:05:19;;;;;;;5.50;2.40;;;;;;;29.62;28.68;100123.59;5112543;28;20028;-41
2023/10/30 09:07:46;;;;;;;11.98;3.78;;;;;;;29.40;29.23;100126.47;5112245;28;20023;-41
2023/10/30 09:10:11;;;;;;;6.97;3.25;;;;;;;29.83;28.87;100122.94;5127048;27;20041;-40
2023/10/30 09:12:37;;;;;;;5.70;2.60;;;;;;;30.34;28.42;100124.03;5132167;27;20482;-40
2023/10/30 09:15:02;;;;;;;10.20;2.53;;;;;;;30.64;27.90;100121.34;5132097;27;20034;-41
2023/10/30 09:17:28;;;;;;;7.03;2.90;;;;;;;30.79;27.83;100118.03;5132394;27;20023;-41
2023/10/30 09:19:53;;;;;;;6.30;2.58;;;;;;;30.93;27.70;100109.59;5132083;27;20026;-44
2023/10/30 09:22:18;;;;;;;6.57;2.30;;;;;;;31.17;27.28;100108.97;5132271;27;20576;-41
2023/10/30 09:24:44;;;;;;;7.38;2.60;;;;;;;30.20;27.78;100102.25;5130549;27;20030;-42
2023/10/30 09:27:09;;;;;;;6.30;2.60;;;;;;;30.70;27.83;100100.81;5104415;28;20095;-40
2023/10/30 09:29:35;;;;;;;8.00;2.50;;;;;;;31.04;27.37;100090.78;5099035;28;20018;-41
2023/10/30 09:32:03;;;;;;;5.13;2.88;;;;;;;31.38;26.79;100099.94;5102160;28;20047;-40
2023/10/30 09:34:28;;;;;;;5.50;2.60;;;;;;;30.97;26.61;100096.00;5120550;27;20420;-27
2023/10/30 09:36:55;;;;;;;6.90;2.60;;;;;;;30.32;27.41;100087.06;5132221;27;20570;-28
2023/10/30 09:39:21;;;;;;;5.53;2.90;;;;;;;30.31;27.57;100086.25;5131983;27;20106;-27
2023/10/30 09:41:46;;;;;;;9.48;2.95;;;;;;;30.17;27.30;100088.38;5132210;27;20027;-27
2023/10/30 09:44:13;;;;;;;8.18;2.60;;;;;;;30.14;27.46;100072.53;5132308;27;20042;-28
2023/10/30 09:46:39;;;;;;;9.77;2.53;;;;;;;30.01;27.72;100072.44;5132193;27;20460;-28
2023/10/30 09:49:05;;;;;;;5.28;2.58;;;;;;;29.86;28.25;100080.38;5132369;27;20075;-27
2023/10/30 09:51:32;;;;;;;6.72;2.90;;;;;;;28.69;29.85;100069.06;5132156;27;20023;-27
2023/10/30 09:53:58;;;;;;;7.85;2.70;;;;;;;28.98;29.38;100065.78;5131874;27;20106;-27
2023/10/30 09:56:26;;;;;;;5.35;2.95;;;;;;;28.87;29.69;100054.31;5132047;27;20081;-29
2023/10/30 09:58:52;;;;;;;10.93;2.80;;;;;;;29.34;29.41;100059.22;5131868;27;20019;-28
2023/10/30 10:01:19;;;;;;;8.80;2.80;;;;;;;29.57;29.18;100052.47;5126675;27;20029;-30
2023/10/30 10:03:44;;;;;;;11.18;2.55;;;;;;;29.57;28.72;100048.91;5122121;28;20027;-28
2023/10/30 10:06:10;;;;;;;7.63;2.80;;;;;;;29.98;28.37;100048.38;5120058;27;20023;-26
2023/10/30 10:08:36;;;;;;;7.78;2.40;;;;;;;30.17;28.41;100038.97;5123765;27;20467;-30
2023/10/30 10:11:05;;;;;;;7.03;2.83;;;;;;;30.23;28.08;100037.66;5120611;27;20031;-26
2023/10/30 10:13:40;;;;;;;8.27;2.80;;;;;;;30.32;27.71;100037.66;5116396;27;20097;-29
2023/10/30 10:16:06;;;;;;;8.77;2.55;;;;;;;30.10;27.43;100035.94;5108150;27;20513;-28
2023/10/30 10:18:35;;;;;;;5.47;2.50;;;;;;;29.74;28.42;100026.16;5115438;28;20031;-27
2023/10/30 10:21:08;;;;;;;7.78;2.53;;;;;;;29.73;28.37;100032.78;5115327;28;20020;-28
2023/10/30 10:23:35;;;;;;;9.40;2.67;;;;;;;29.48;29.07;100024.25;5115259;28;20333;-27
2023/10/30 10:26:13;;;;;;;8.70;3.00;;;;;;;29.38;29.05;100032.81;5115477;28;20038;-28
2023/10/30 10:28:39;;;;;;;7.90;2.70;;;;;;;29.61;28.51;100025.22;5115196;28;20410;-27
2023/10/30 10:31:04;;;;;;;4.28;2.50;;;;;;;30.00;29.00;100017.88;5115277;28;20052;-27
2023/10/30 10:33:32;;;;;;;4.95;2.65;;;;;;;30.31;28.68;100017.63;5114838;28;20044;-29
2023/10/30 10:36:01;;;;;;;6.45;2.60;;;;;;;30.56;27.92;100015.13;5115165;28;20024;-30
2023/10/30 10:38:26;;;;;;;;;;;;;;;31.04;27.46;100015.81;5115350;28;20028;-28
2023/10/30 10:40:52;;;;;;;5.60;2.60;;;;;;;31.07;27.87;100015.94;5114396;28;19908;-27
2023/10/30 10:43:21;;;;;;;10.85;3.03;;;;;;;31.33;27.61;100006.69;5115037;28;20011;-28
2023/10/30 10:45:48;;;;;;;7.63;2.75;;;;;;;31.12;27.48;100003.94;5114997;28;20019;-26
2023/10/30 10:48:15;;;;;;;9.15;3.15;;;;;;;31.30;27.87;100007.34;5114988;28;20041;-30
2023/10/30 10:50:41;;;;;;;6.80;3.00;;;;;;;31.25;27.99;99996.56;5115244;28;20027;-29
2023/10/30 10:53:07;;;;;;;7.20;2.80;;;;;;;31.48;26.90;100002.53;5115020;28;20055;-27
2023/10/30 10:55:47;;;;;;;7.80;2.80;;;;;;;31.41;27.31;99989.28;5115003;28;20020;-27
2023/10/30 10:58:30;;;;;;;4.45;2.75;;;;;;;31.43;27.34;99988.97;5114723;28;20101;-27
2023/10/30 11:00:57;;;;;;;4.80;2.60;;;;;;;31.28;27.38;99979.38;5114709;28;20032;-29
2023/10/30 11:03:23;;;;;;;6.57;2.70;;;;;;;31.13;27.54;99978.88;5114759;28;20141;-30
2023/10/30 11:05:50;;;;;;;6.88;3.00;;;;;;;31.18;27.73;99973.16;5114777;28;20471;-27
2023/10/30 11:08:56;;;;;;;10.27;3.10;;;;;;;30.88;28.72;99979.84;5114785;28;20026;-29
2023/10/30 11:11:40;;;;;;;7.38;2.90;;;;;;;31.19;27.90;99968.50;5031846;28;20624;-29
2023/10/30 11:14:18;;;;;;;5.63;2.65;;;;;;;31.38;28.04;99966.03;5031655;28;20079;-27
2023/10/30 11:17:00;;;;;;;6.78;2.97;;;;;;;31.87;27.68;99956.31;5088954;28;20116;-28
2023/10/30 11:19:26;;;;;;;7.15;3.00;;;;;;;32.18;27.01;99949.50;5112993;28;20030;-31